Time;durP1;ratioP1;P1;durP2;ratioP2;P2;SDS_P1;SDS_P2;PMS_P1;PMS_P2;Temp;Humidity;BMP_temperature;BMP_pressure;BME280_temperature;BME280_humidity;BME280_pressure;Samples;Min_cycle;Max_cycle;Signal;HPM_P1;HPM_P2
2023/06/16 00:01:31;;;;;;;11.68;6.25;;;;;;;;;;5036014;28;20103;-82
2023/06/16 00:04:03;;;;;;;7.00;5.25;;;;;;;;;;5034870;28;20053;-81
2023/06/16 00:06:29;;;;;;;6.68;4.30;;;;;;;;;;5035811;28;20397;-81
2023/06/16 00:08:57;;;;;;;7.57;4.60;;;;;;;;;;5034895;28;20056;-82
2023/06/16 00:11:24;;;;;;;10.90;4.75;;;;;;;;;;5033768;28;20052;-83
2023/06/16 00:13:51;;;;;;;9.55;5.40;;;;;;;;;;5033911;28;20032;-81
2023/06/16 00:16:19;;;;;;;9.43;4.75;;;;;;;;;;5033594;28;20053;-83
2023/06/16 00:18:46;;;;;;;8.15;4.80;;;487.20;2380.80;;;;;;5032667;28;20373;-83
2023/06/16 00:21:19;;;;;;;10.25;4.57;;;487.10;2380.80;;;;;;5033833;28;20025;-84
2023/06/16 00:23:48;;;;;;;6.57;4.28;;;487.10;2380.80;;;;;;5033486;28;20034;-81
2023/06/16 00:26:14;;;;;;;5.43;3.92;;;487.10;2380.80;;;;;;5034829;28;20072;-81
2023/06/16 00:28:40;;;;;;;7.07;4.00;;;487.10;2380.80;;;;;;5033760;28;20056;-82
2023/06/16 00:31:06;;;;;;;6.43;4.18;;;487.10;2380.80;;;;;;5047277;28;20116;-82
2023/06/16 00:33:32;;;;;;;7.15;4.53;;;487.20;2380.80;;;;;;5070328;28;20063;-82
2023/06/16 00:35:58;;;;;;;7.57;4.80;;;487.20;2380.80;;;;;;5069813;28;20025;-81
2023/06/16 00:38:25;;;;;;;9.65;5.63;;;487.10;2380.80;;;;;;5053105;28;20473;-81
2023/06/16 00:40:51;;;;;;;6.93;5.00;;;487.00;2380.80;;;;;;5053219;28;20061;-81
2023/06/16 00:43:17;;;;;;;7.30;5.05;;;487.10;2380.80;;;;;;5053687;28;20033;-82
2023/06/16 00:45:42;;;;;;;5.82;4.68;;;487.00;2380.80;;;;;;5053186;28;20032;-81
2023/06/16 00:48:08;;;;;;;8.10;4.97;;;487.10;2380.80;;;;;;5054293;28;20029;-81
2023/06/16 00:50:34;;;;;;;6.47;4.30;;;487.10;2380.80;;;;;;5052768;28;20453;-81
2023/06/16 00:53:00;;;;;;;7.88;4.20;;;487.10;2380.80;;;;;;5054288;28;20029;-82
2023/06/16 00:55:26;;;;;;;7.93;4.60;;;487.10;2380.80;;;;;;5054221;28;20029;-81
2023/06/16 00:57:55;;;;;;;6.90;3.97;;;487.10;2380.80;;;;;;5052390;28;20087;-81
2023/06/16 01:00:21;;;;;;;6.60;4.22;;;487.10;2380.80;;;;;;5055443;28;20032;-81
2023/06/16 01:02:48;;;;;;;6.47;4.45;;;487.00;2380.80;;;;;;5078153;28;20005;-80
2023/06/16 01:05:17;;;;;;;5.63;4.53;;;487.30;2380.80;;;;;;5012637;28;1282289;-82
2023/06/16 01:08:22;;;;;;;9.57;4.35;;;487.10;2380.80;;;;;;5054807;28;20029;-81
2023/06/16 01:11:05;;;;;;;5.97;4.13;;;487.10;2380.80;;;;;;5054910;28;20062;-81
2023/06/16 01:13:42;;;;;;;6.00;4.15;;;487.10;2380.80;;;;;;5054572;28;20078;-82
2023/06/16 01:16:10;;;;;;;8.00;4.75;;;487.00;2380.80;;;;;;5053700;28;20524;-81
2023/06/16 01:18:39;;;;;;;7.93;5.40;;;487.00;2380.80;;;;;;5053277;28;20078;-81
2023/06/16 01:21:37;;;;;;;6.63;5.80;;;486.90;2380.80;;;;;;5054510;28;20032;-81
2023/06/16 01:24:08;;;;;;;9.45;6.90;;;486.90;2380.80;;;;;;5053491;28;20037;-81
2023/06/16 01:26:40;;;;;;;7.13;5.97;;;486.90;2380.80;;;;;;5053294;28;20423;-81
2023/06/16 01:29:10;;;;;;;9.82;6.78;;;486.90;2380.80;;;;;;5052989;28;20029;-81
2023/06/16 01:31:38;;;;;;;8.00;6.32;;;486.90;2380.80;;;;;;5053571;28;20029;-82
2023/06/16 01:34:06;;;;;;;9.10;6.75;;;486.80;2380.80;;;;;;5053934;28;20025;-82
2023/06/16 01:36:36;;;;;;;10.50;7.95;;;486.80;2380.80;;;;;;5053242;28;20025;-81
2023/06/16 01:39:02;;;;;;;14.23;10.25;;;486.80;2380.80;;;;;;5054386;28;20025;-80
2023/06/16 01:41:29;;;;;;;13.02;10.65;;;486.80;2380.80;;;;;;5052732;28;20171;-81
2023/06/16 01:43:56;;;;;;;11.93;9.32;;;486.80;2380.80;;;;;;5054252;28;20037;-81
2023/06/16 01:46:22;;;;;;;12.80;10.32;;;486.80;2380.80;;;;;;5052829;28;20056;-81
2023/06/16 01:48:48;;;;;;;11.20;9.00;;;486.80;2380.80;;;;;;5054248;28;20137;-80
2023/06/16 01:51:15;;;;;;;11.95;9.25;;;486.50;2380.80;;;;;;5052920;28;20136;-82
2023/06/16 01:53:41;;;;;;;11.52;9.07;;;486.80;2380.80;;;;;;5052483;28;20028;-81
2023/06/16 01:56:10;;;;;;;10.55;8.98;;;486.80;2380.80;;;;;;5054124;28;20102;-82
2023/06/16 01:58:36;;;;;;;9.02;7.50;;;486.90;2380.80;;;;;;5052898;28;20024;-81
2023/06/16 02:01:08;;;;;;;9.10;6.93;;;486.90;2380.80;;;;;;5052474;28;20087;-80
2023/06/16 02:03:55;;;;;;;9.45;7.60;;;486.80;2380.80;;;;;;5053941;28;20033;-81
2023/06/16 02:06:33;;;;;;;8.15;7.10;;;486.80;2380.80;;;;;;5052523;28;20078;-81
2023/06/16 02:09:03;;;;;;;8.00;6.95;;;486.80;2380.80;;;;;;5053476;28;20384;-80
2023/06/16 02:11:29;;;;;;;7.63;5.55;;;486.80;2380.80;;;;;;5053844;28;20067;-82
2023/06/16 02:13:55;;;;;;;8.77;4.70;;;486.70;2380.80;;;;;;5053826;28;20036;-81
2023/06/16 02:16:21;;;;;;;8.13;5.30;;;486.60;2380.80;;;;;;5052337;28;20029;-80
2023/06/16 02:18:53;;;;;;;5.65;4.57;;;486.70;2380.80;;;;;;5052510;28;20025;-81
2023/06/16 02:21:20;;;;;;;5.40;4.18;;;486.70;2380.80;;;;;;5052311;28;20477;-80
2023/06/16 02:23:46;;;;;;;4.97;3.10;;;486.70;2380.80;;;;;;5052347;28;20037;-81
2023/06/16 02:26:11;;;;;;;4.45;2.97;;;486.60;2380.80;;;;;;5052345;28;20025;-80
2023/06/16 02:28:37;;;;;;;7.88;3.28;;;486.60;2380.80;;;;;;5053284;28;20025;-81
2023/06/16 02:31:03;;;;;;;5.85;3.08;;;486.70;2380.80;;;;;;5053597;28;20469;-81
2023/06/16 02:33:29;;;;;;;4.07;2.60;;;486.70;2380.80;;;;;;5052521;28;20384;-79
2023/06/16 02:35:54;;;;;;;3.97;2.25;;;486.70;2380.80;;;;;;5052078;28;20469;-81
2023/06/16 02:38:20;;;;;;;3.67;2.22;;;486.50;2380.80;;;;;;5052238;28;20120;-81
2023/06/16 02:40:46;;;;;;;3.45;2.17;;;486.50;2380.80;;;;;;5051849;28;20078;-81
2023/06/16 02:43:12;;;;;;;6.30;2.28;;;486.50;2380.80;;;;;;5051698;28;20393;-80
2023/06/16 02:45:39;;;;;;;3.20;1.98;;;486.50;2380.80;;;;;;5052213;28;20029;-81
2023/06/16 02:48:05;;;;;;;3.22;1.60;;;;;;;;;;5052194;28;20079;-82
2023/06/16 02:50:31;;;;;;;3.50;2.00;;;;;;;;;;5051485;28;20028;-81
2023/06/16 02:52:58;;;;;;;4.45;2.55;;;;;;;;;;5052195;28;20469;-80
2023/06/16 02:55:24;;;;;;;4.28;1.70;;;;;;;;;;5044894;28;20029;-82
2023/06/16 02:57:50;;;;;;;3.28;1.50;;;486.50;2176.00;;;;;;5031961;28;20420;-81
2023/06/16 03:00:16;;;;;;;2.50;1.30;;;486.40;2380.80;;;;;;5031631;28;20025;-81
2023/06/16 03:02:42;;;;;;;2.60;1.30;;;461.70;2380.80;;;;;;5048442;28;20049;-81
2023/06/16 03:05:08;;;;;;;4.75;1.40;;;461.70;2380.80;;;;;;5031267;28;20438;-81
2023/06/16 03:07:35;;;;;;;2.75;1.27;;;461.60;2380.80;;;;;;5048905;28;20037;-81
2023/06/16 03:10:07;;;;;;;3.88;1.60;;;461.60;2380.80;;;;;;5033456;28;20025;-81
2023/06/16 03:12:33;;;;;;;4.88;1.50;;;461.60;2380.80;;;;;;5048582;28;20025;-80
2023/06/16 03:14:58;;;;;;;2.83;1.40;;;461.60;2380.80;;;;;;5048429;28;20515;-81
2023/06/16 03:17:24;;;;;;;1.77;1.00;;;461.60;2380.80;;;;;;5031941;28;20029;-80
2023/06/16 03:19:51;;;;;;;4.03;1.38;;;461.50;2380.80;;;;;;5048398;28;20025;-80
2023/06/16 03:22:17;;;;;;;2.55;1.20;;;461.50;2380.80;;;;;;5048690;28;20061;-81
2023/06/16 03:24:44;;;;;;;3.80;1.30;;;461.50;2380.80;;;;;;5032967;28;20034;-81
2023/06/16 03:27:10;;;;;;;3.17;1.10;;;461.40;2022.40;;;;;;5048631;28;20057;-81
2023/06/16 03:29:36;;;;;;;2.70;1.15;;;461.40;2380.80;;;;;;5048395;28;20088;-82
2023/06/16 03:32:06;;;;;;;3.10;1.40;;;461.50;2380.80;;;;;;5048189;28;20053;-81
2023/06/16 03:34:32;;;;;;;2.53;1.27;;;461.20;2380.80;;;;;;5047964;28;20049;-82
2023/06/16 03:36:58;;;;;;;3.38;1.20;;;461.40;2380.80;;;;;;5052818;28;20029;-81
2023/06/16 03:39:25;;;;;;;3.22;1.20;;;486.50;2380.80;;;;;;5051456;28;20542;-82
2023/06/16 03:41:51;;;;;;;2.50;1.60;;;461.40;2201.60;;;;;;5053115;28;20059;-81
2023/06/16 03:44:17;;;;;;;2.42;1.30;;;461.40;2380.80;;;;;;5053079;28;20362;-81
2023/06/16 03:46:43;;;;;;;2.80;1.20;;;461.30;2227.20;;;;;;5052657;28;20104;-81
2023/06/16 03:49:09;;;;;;;3.13;1.20;;;461.30;2380.80;;;;;;5051699;28;20033;-82
2023/06/16 03:51:35;;;;;;;2.17;1.20;;;461.30;2073.60;;;;;;5052832;28;20025;-81
2023/06/16 03:54:01;;;;;;;2.97;1.40;;;461.30;2380.80;;;;;;5053981;28;20029;-82
2023/06/16 03:56:27;;;;;;;3.33;1.42;;;461.40;2380.80;;;;;;5056490;28;20025;-82
2023/06/16 03:58:55;;;;;;;2.40;1.38;;;461.40;2380.80;;;;;;5055525;28;20021;-82
2023/06/16 04:01:22;;;;;;;3.22;1.30;;;461.40;2380.80;;;;;;5055408;28;20068;-83
2023/06/16 04:03:49;;;;;;;5.53;1.55;;;461.20;2380.80;;;;;;5055805;28;20032;-83
2023/06/16 04:06:15;;;;;;;2.45;1.25;;;461.40;2380.80;;;;;;5056231;28;20068;-83
2023/06/16 04:08:41;;;;;;;2.38;1.42;;;461.40;2380.80;;;;;;5072177;28;20029;-83
2023/06/16 04:11:07;;;;;;;2.95;1.58;;;461.40;2380.80;;;;;;5056504;28;20079;-84
2023/06/16 04:13:33;;;;;;;3.30;1.65;;;461.40;2380.80;;;;;;5056608;28;20029;-84
2023/06/16 04:15:59;;;;;;;3.90;2.03;;;461.30;2380.80;;;;;;5072318;28;20029;-84
2023/06/16 04:18:25;;;;;;;4.07;2.00;;;461.20;2380.80;;;;;;5072146;28;20036;-85
2023/06/16 04:20:51;;;;;;;4.13;2.38;;;461.20;2380.80;;;;;;5071784;28;20029;-84
2023/06/16 04:23:17;;;;;;;4.35;2.00;;;461.20;2380.80;;;;;;5072172;28;20033;-84
2023/06/16 04:25:43;;;;;;;3.10;1.70;;;461.20;2380.80;;;;;;5071836;28;20385;-84
2023/06/16 04:28:14;;;;;;;3.00;1.70;;;461.20;2380.80;;;;;;5071900;28;20461;-85
2023/06/16 04:30:44;;;;;;;3.35;1.80;;;461.30;2380.80;;;;;;5071854;28;20036;-84
2023/06/16 04:33:10;;;;;;;3.55;1.80;;;461.20;2380.80;;;;;;5070773;28;20029;-84
2023/06/16 04:35:39;;;;;;;2.80;1.73;;;461.20;2380.80;;;;;;5071209;28;20025;-83
2023/06/16 04:38:05;;;;;;;5.38;2.25;;;461.30;2380.80;;;;;;5056753;28;20017;-84
2023/06/16 04:40:30;;;;;;;3.38;1.63;;;461.30;2380.80;;;;;;5068611;28;20032;-86
2023/06/16 04:42:56;;;;;;;2.85;1.75;;;461.40;2380.80;;;;;;5078775;28;20009;-82
2023/06/16 04:45:22;;;;;;;3.55;2.22;;;461.30;2380.80;;;;;;5055970;28;20025;-85
2023/06/16 04:47:50;;;;;;;4.10;1.83;;;461.30;2380.80;;;;;;5055950;28;20130;-85
2023/06/16 04:50:16;;;;;;;3.10;1.55;;;461.40;2380.80;;;;;;5055573;28;20060;-85
2023/06/16 04:52:43;;;;;;;3.25;1.67;;;461.60;2380.80;;;;;;5054785;28;20423;-84
2023/06/16 04:55:09;;;;;;;2.50;1.60;;;461.40;2278.40;;;;;;5054588;28;20040;-84
2023/06/16 04:57:35;;;;;;;3.17;1.77;;;461.40;2380.80;;;;;;5054686;28;20119;-84
2023/06/16 05:00:06;;;;;;;3.13;1.65;;;461.40;2380.80;;;;;;5054677;28;20094;-84
2023/06/16 05:02:32;;;;;;;3.65;1.90;;;461.40;2380.80;;;;;;5055485;28;20029;-84
2023/06/16 05:04:58;;;;;;;4.95;1.63;;;461.40;2380.80;;;;;;5053490;28;20163;-83
2023/06/16 05:07:24;;;;;;;3.10;1.70;;;461.50;2380.80;;;;;;5055424;28;20028;-83
2023/06/16 05:09:50;;;;;;;2.80;1.70;;;461.40;2380.80;;;;;;5054432;28;20036;-84
2023/06/16 05:12:16;;;;;;;2.90;1.67;;;461.40;2252.80;;;;;;5054804;28;20051;-85
2023/06/16 05:14:42;;;;;;;2.58;1.50;;;461.40;2380.80;;;;;;5055327;28;20362;-84
2023/06/16 05:17:07;;;;;;;2.83;1.80;;;461.40;2380.80;;;;;;5053980;28;20025;-84
2023/06/16 05:19:33;;;;;;;4.43;1.50;;;461.40;2380.80;;;;;;5054061;28;20029;-83
2023/06/16 05:21:59;;;;;;;2.40;1.40;;;461.40;2329.60;;;;;;5054043;28;20029;-84
2023/06/16 05:24:25;;;;;;;3.13;1.45;;;461.40;2380.80;;;;;;5053653;28;20064;-83
2023/06/16 05:26:51;;;;;;;3.30;1.58;;;461.40;2380.80;;;;;;5053913;28;20036;-83
2023/06/16 05:29:17;;;;;;;4.18;1.58;;;461.40;2380.80;;;;;;5053637;28;20025;-83
2023/06/16 05:31:43;;;;;;;2.85;1.40;;;461.40;2380.80;;;;;;5053243;28;20044;-83
2023/06/16 05:34:09;;;;;;;3.30;1.25;;;461.40;2380.80;;;;;;5054872;28;20499;-83
2023/06/16 05:36:35;;;;;;;3.10;1.60;;;461.40;2380.80;;;;;;5053227;28;20086;-83
2023/06/16 05:39:06;;;;;;;6.35;1.40;;;461.40;2380.80;;;;;;5053380;28;20029;-83
2023/06/16 05:41:33;;;;;;;3.65;1.50;;;461.40;2380.80;;;;;;5053643;28;20385;-83
2023/06/16 05:43:59;;;;;;;2.40;1.30;;;461.40;2380.80;;;;;;5053241;28;20029;-83
2023/06/16 05:46:25;;;;;;;2.40;1.40;;;461.40;2380.80;;;;;;5052460;28;20040;-84
2023/06/16 05:48:51;;;;;;;3.92;1.40;;;461.40;2380.80;;;;;;5070134;28;20385;-83
2023/06/16 05:51:17;;;;;;;2.63;1.45;;;461.40;2380.80;;;;;;5054323;28;20025;-83
2023/06/16 05:53:43;;;;;;;4.28;1.70;;;461.40;2380.80;;;;;;5069801;28;20032;-82
2023/06/16 05:56:09;;;;;;;2.83;1.80;;;461.40;2176.00;;;;;;5069765;28;20048;-84
2023/06/16 05:58:36;;;;;;;3.78;1.90;;;461.40;2380.80;;;;;;5053749;28;20056;-84
2023/06/16 06:01:09;;;;;;;3.22;2.08;;;461.40;2380.80;;;;;;5053039;28;20017;-84
2023/06/16 06:03:35;;;;;;;4.90;3.50;;;461.40;2380.80;;;;;;5069801;28;20485;-84
2023/06/16 06:06:01;;;;;;;9.15;3.20;;;461.40;2380.80;;;;;;5069329;28;20055;-84
2023/06/16 06:08:28;;;;;;;3.70;2.30;;;461.40;2380.80;;;;;;5069758;28;20098;-84
2023/06/16 06:11:01;;;;;;;4.75;1.83;;;461.40;2380.80;;;;;;5069981;28;20051;-85
2023/06/16 06:13:26;;;;;;;2.55;1.67;;;461.50;2380.80;;;;;;5052890;28;20025;-84
2023/06/16 06:15:52;;;;;;;3.95;2.40;;;461.50;2278.40;;;;;;5052182;28;20082;-83
2023/06/16 06:18:18;;;;;;;2.85;1.88;;;461.50;2380.80;;;;;;5052971;28;20025;-83
2023/06/16 06:20:45;;;;;;;3.30;1.90;;;461.50;2380.80;;;;;;5054425;28;20561;-86
2023/06/16 06:23:12;;;;;;;3.25;2.15;;;461.50;2380.80;;;;;;5053067;28;20021;-85
2023/06/16 06:25:40;;;;;;;3.03;1.80;;;461.60;2380.80;;;;;;5053434;28;20377;-85
2023/06/16 06:28:06;;;;;;;5.25;2.20;;;461.50;2380.80;;;;;;5053164;28;20049;-85
2023/06/16 06:30:32;;;;;;;4.75;2.20;;;461.60;2380.80;;;;;;5040293;28;20030;-86
2023/06/16 06:32:57;;;;;;;6.95;4.50;;;461.60;2380.80;;;;;;5049942;28;20026;-86
2023/06/16 06:35:23;;;;;;;6.30;5.10;;;461.60;2329.60;;;;;;5034284;28;20033;-86
2023/06/16 06:37:49;;;;;;;5.43;2.70;;;461.60;2380.80;;;;;;5050134;28;20029;-86
2023/06/16 06:40:15;;;;;;;3.25;2.30;;;461.70;2380.80;;;;;;5049853;28;20036;-86
2023/06/16 06:42:41;;;;;;;5.80;3.70;;;486.40;2380.80;;;;;;5049867;28;20026;-85
2023/06/16 06:45:09;;;;;;;5.38;2.40;;;486.40;2380.80;;;;;;5050027;28;20037;-85
2023/06/16 06:47:34;;;;;;;4.47;2.20;;;461.40;2380.80;;;;;;5049714;28;20022;-87
2023/06/16 06:50:02;;;;;;;3.78;2.30;;;486.40;2380.80;;;;;;5049796;28;20033;-86
2023/06/16 06:52:27;;;;;;;2.70;1.52;;;486.40;2380.80;;;;;;5049999;28;20488;-88
2023/06/16 06:54:53;;;;;;;2.65;1.63;;;486.40;2380.80;;;;;;5049531;28;20021;-87
2023/06/16 06:57:19;;;;;;;2.72;1.50;;;461.70;2380.80;;;;;;5049879;28;20477;-86
2023/06/16 06:59:45;;;;;;;2.90;1.73;;;461.70;2380.80;;;;;;5049730;28;20048;-86
2023/06/16 07:02:11;;;;;;;2.70;1.60;;;461.70;2380.80;;;;;;5049862;28;20061;-84
2023/06/16 07:04:38;;;;;;;3.65;2.00;;;461.70;2380.80;;;;;;5049508;28;20144;-86
2023/06/16 07:07:04;;;;;;;3.40;1.73;;;461.70;2380.80;;;;;;5032570;28;20127;-85
2023/06/16 07:09:30;;;;;;;2.80;1.50;;;461.70;2380.80;;;;;;5033831;28;20021;-86
2023/06/16 07:11:56;;;;;;;2.70;1.70;;;461.70;2380.80;;;;;;5049172;28;20140;-85
2023/06/16 07:14:22;;;;;;;4.80;2.20;;;461.70;2380.80;;;;;;5049331;28;20083;-86
2023/06/16 07:16:48;;;;;;;6.38;2.00;;;486.40;2380.80;;;;;;5049240;28;20025;-86
2023/06/16 07:19:13;;;;;;;3.20;1.98;;;486.40;2380.80;;;;;;5049417;28;20112;-85
2023/06/16 07:21:39;;;;;;;4.60;2.22;;;486.40;2380.80;;;;;;5049580;28;20461;-85
2023/06/16 07:24:06;;;;;;;2.90;1.50;;;486.40;2380.80;;;;;;5033563;28;20041;-84
2023/06/16 07:26:32;;;;;;;2.50;1.50;;;486.40;2380.80;;;;;;5049429;28;20033;-84
2023/06/16 07:29:00;;;;;;;2.90;1.40;;;486.40;2380.80;;;;;;5052889;28;20026;-85
2023/06/16 07:31:26;;;;;;;2.72;1.77;;;461.70;2380.80;;;;;;5053309;28;20112;-86
2023/06/16 07:33:51;;;;;;;3.33;1.92;;;486.40;2380.80;;;;;;5053095;28;20040;-86
2023/06/16 07:36:17;;;;;;;4.20;2.42;;;461.70;2380.80;;;;;;5053223;28;20025;-87
2023/06/16 07:38:43;;;;;;;5.68;2.70;;;461.70;2380.80;;;;;;5053099;28;20030;-88
2023/06/16 07:41:09;;;;;;;3.33;2.15;;;486.40;2380.80;;;;;;5053321;28;20128;-86
2023/06/16 07:43:35;;;;;;;4.28;2.20;;;461.70;2380.80;;;;;;5053177;28;20457;-88
2023/06/16 07:46:01;;;;;;;2.65;1.50;;;461.70;2380.80;;;;;;5053376;28;20032;-83
2023/06/16 07:48:27;;;;;;;2.80;1.63;;;461.70;2380.80;;;;;;5053316;28;20022;-87
2023/06/16 07:50:55;;;;;;;2.63;1.48;;;461.70;2380.80;;;;;;5053278;28;20449;-88
2023/06/16 07:53:21;;;;;;;4.93;1.80;;;461.70;2380.80;;;;;;5069787;28;20044;-88
2023/06/16 07:55:47;;;;;;;3.10;1.40;;;461.70;2380.80;;;;;;5073042;28;20025;-85
2023/06/16 07:58:13;;;;;;;3.22;1.58;;;461.70;2380.80;;;;;;5056979;28;20021;-86
2023/06/16 08:00:39;;;;;;;2.85;1.70;;;461.70;2380.80;;;;;;5055952;28;20484;-82
2023/06/16 08:03:04;;;;;;;2.22;1.20;;;461.70;2380.80;;;;;;5055277;28;20025;-84
2023/06/16 08:05:30;;;;;;;2.40;1.42;;;486.40;2380.80;;;;;;5054848;28;20075;-85
2023/06/16 08:07:56;;;;;;;5.82;1.38;;;461.70;2380.80;;;;;;5055905;28;20029;-86
2023/06/16 08:10:23;;;;;;;2.97;1.35;;;486.40;2380.80;;;;;;5055534;28;20029;-83
2023/06/16 08:12:49;;;;;;;1.85;1.10;;;486.40;2380.80;;;;;;5056471;28;20124;-83
2023/06/16 08:15:16;;;;;;;4.13;1.73;;;461.30;2380.80;;;;;;5056208;28;20025;-83
2023/06/16 08:17:43;;;;;;;2.30;1.23;;;486.40;2380.80;;;;;;5056449;28;20032;-83
2023/06/16 08:20:10;;;;;;;2.97;1.80;;;486.40;2380.80;;;;;;5055067;28;20057;-81
2023/06/16 08:22:36;;;;;;;3.78;2.20;;;486.40;2380.80;;;;;;5055044;28;20025;-83
2023/06/16 08:25:04;;;;;;;3.08;1.80;;;486.40;2380.80;;;;;;5055085;28;20033;-85
2023/06/16 08:27:30;;;;;;;4.25;2.20;;;461.70;2380.80;;;;;;5054773;28;20059;-86
2023/06/16 08:29:56;;;;;;;3.97;2.50;;;461.70;2329.60;;;;;;5054928;28;20024;-85
2023/06/16 08:32:22;;;;;;;3.90;2.50;;;461.60;2380.80;;;;;;5054723;28;20039;-84
2023/06/16 08:34:48;;;;;;;3.20;1.80;;;461.60;2380.80;;;;;;5054780;28;20071;-85
2023/06/16 08:37:14;;;;;;;2.60;1.42;;;461.50;2380.80;;;;;;5054285;28;20017;-83
2023/06/16 08:39:43;;;;;;;4.13;1.80;;;461.50;2380.80;;;;;;5053086;28;20017;-85
2023/06/16 08:42:12;;;;;;;5.05;1.90;;;461.50;2380.80;;;;;;5052895;28;20024;-86
2023/06/16 08:44:43;;;;;;;2.80;1.40;;;461.40;2380.80;;;;;;5054499;28;20029;-85
2023/06/16 08:47:09;;;;;;;3.30;1.33;;;461.40;2380.80;;;;;;5055484;28;20530;-85
2023/06/16 08:49:36;;;;;;;3.10;1.90;;;461.40;2380.80;;;;;;5055247;28;20468;-87
2023/06/16 08:52:03;;;;;;;3.40;2.03;;;461.30;2380.80;;;;;;5054814;28;20025;-85
2023/06/16 08:54:37;;;;;;;3.63;2.28;;;461.30;2380.80;;;;;;5068260;28;20036;-85
2023/06/16 08:57:06;;;;;;;4.10;2.15;;;461.40;2380.80;;;;;;5078275;28;20020;-86
2023/06/16 08:59:33;;;;;;;4.30;2.20;;;461.40;2380.80;;;;;;5055030;28;20554;-87
2023/06/16 09:02:01;;;;;;;4.78;2.42;;;461.50;2380.80;;;;;;5054716;28;20033;-85
2023/06/16 09:04:28;;;;;;;3.78;2.30;;;461.50;2380.80;;;;;;5055712;28;20065;-84
2023/06/16 09:06:58;;;;;;;4.35;2.33;;;461.60;2380.80;;;;;;5055735;28;20037;-83
2023/06/16 09:09:24;;;;;;;3.30;2.13;;;461.70;2380.80;;;;;;5070707;28;20036;-83
2023/06/16 09:12:07;;;;;;;4.05;2.65;;;461.70;2380.80;;;;;;5070824;28;20021;-83
2023/06/16 09:14:34;;;;;;;4.38;3.00;;;486.40;2380.80;;;;;;5070827;28;20040;-85
2023/06/16 09:17:04;;;;;;;3.47;2.75;;;486.40;2380.80;;;;;;5070835;28;20032;-86
2023/06/16 09:19:30;;;;;;;4.70;3.15;;;486.50;2380.80;;;;;;5070647;28;20111;-85
2023/06/16 09:21:59;;;;;;;4.90;2.80;;;486.70;2380.80;;;;;;5070451;28;20036;-84
2023/06/16 09:24:27;;;;;;;4.15;2.97;;;486.70;2048.00;;;;;;5070470;28;20040;-84
2023/06/16 09:26:57;;;;;;;4.90;4.15;;;486.70;2380.80;;;;;;5070121;28;20071;-83
2023/06/16 09:29:25;;;;;;;4.53;3.80;;;486.80;1996.80;;;;;;5053043;28;20027;-82
2023/06/16 09:31:51;;;;;;;7.72;4.20;;;487.00;2380.80;;;;;;5053436;28;20484;-82
2023/06/16 09:34:17;;;;;;;4.95;3.92;;;487.00;2380.80;;;;;;5054806;28;20055;-80
2023/06/16 09:36:44;;;;;;;4.95;4.03;;;487.10;2380.80;;;;;;5053124;28;20426;-83
2023/06/16 09:39:36;;;;;;;4.22;3.33;;;487.10;2380.80;;;;;;5052681;28;20037;-84
2023/06/16 09:42:02;;;;;;;6.03;3.60;;;487.00;2380.80;;;;;;5050077;28;20044;-83
2023/06/16 09:44:31;;;;;;;4.72;3.60;;;487.10;2380.80;;;;;;5053739;28;20446;-84
2023/06/16 09:47:01;;;;;;;5.13;3.45;;;487.00;2380.80;;;;;;5050376;28;20024;-82
2023/06/16 09:49:27;;;;;;;5.13;4.10;;;487.00;2380.80;;;;;;5053061;28;20518;-81
2023/06/16 09:51:54;;;;;;;5.60;4.18;;;487.10;2380.80;;;;;;5052810;28;20362;-83
2023/06/16 09:54:22;;;;;;;5.13;4.05;;;487.10;2380.80;;;;;;5053205;28;20033;-83
2023/06/16 09:56:48;;;;;;;4.97;3.90;;;487.10;2380.80;;;;;;5052989;28;20036;-83
2023/06/16 09:59:15;;;;;;;4.47;3.42;;;487.20;2380.80;;;;;;5053123;28;20021;-82
2023/06/16 10:01:43;;;;;;;4.60;3.50;;;487.20;2380.80;;;;;;5052970;28;20029;-84
2023/06/16 10:04:15;;;;;;;4.85;3.45;;;487.10;2380.80;;;;;;5052791;28;20092;-83
2023/06/16 10:07:02;;;;;;;5.85;4.10;;;487.10;2380.80;;;;;;5052513;28;20045;-80
2023/06/16 10:09:35;;;;;;;4.40;3.40;;;487.10;2380.80;;;;;;5052309;28;20067;-80
2023/06/16 10:12:02;;;;;;;6.22;4.90;;;487.10;2380.80;;;;;;5052365;28;20115;-82
2023/06/16 10:14:33;;;;;;;5.60;4.80;;;487.10;2380.80;;;;;;5052470;28;20556;-82
2023/06/16 10:17:00;;;;;;;6.25;4.97;;;487.20;2380.80;;;;;;5051610;28;20550;-80
2023/06/16 10:19:28;;;;;;;6.13;4.85;;;487.10;2380.80;;;;;;5051584;28;20087;-79
2023/06/16 10:21:55;;;;;;;6.35;5.00;;;487.10;2380.80;;;;;;5051996;28;20025;-82
2023/06/16 10:24:21;;;;;;;6.40;4.50;;;487.10;2380.80;;;;;;5052227;28;20044;-79
2023/06/16 10:26:49;;;;;;;6.45;3.72;;;487.00;2380.80;;;;;;5052714;28;20119;-80
2023/06/16 10:29:16;;;;;;;4.05;3.30;;;487.00;2380.80;;;;;;5052208;28;20021;-81
2023/06/16 10:31:45;;;;;;;6.13;3.90;;;487.00;2380.80;;;;;;5052381;28;20028;-80
2023/06/16 10:34:22;;;;;;;5.32;3.88;;;486.90;2380.80;;;;;;5052395;28;20025;-79
2023/06/16 10:36:51;;;;;;;4.90;3.40;;;487.00;2380.80;;;;;;5052604;28;20385;-82
2023/06/16 10:39:18;;;;;;;5.78;2.67;;;486.90;2380.80;;;;;;5051738;28;20087;-82
2023/06/16 10:41:55;;;;;;;4.13;3.22;;;486.90;2380.80;;;;;;5051568;28;20025;-81
2023/06/16 10:44:25;;;;;;;5.43;3.63;;;486.90;2380.80;;;;;;5049442;28;20183;-80
2023/06/16 10:47:11;;;;;;;4.20;3.03;;;486.90;2380.80;;;;;;5052001;28;20021;-79
2023/06/16 10:49:51;;;;;;;4.07;3.00;;;486.90;2380.80;;;;;;5052338;28;20384;-82
2023/06/16 10:52:18;;;;;;;3.95;2.92;;;486.90;2380.80;;;;;;5052248;28;20029;-81
2023/06/16 10:54:48;;;;;;;3.70;2.70;;;486.90;2380.80;;;;;;5052439;28;20068;-81
2023/06/16 10:57:14;;;;;;;3.95;2.92;;;486.80;2380.80;;;;;;5052518;28;20050;-80
2023/06/16 10:59:59;;;;;;;5.57;2.92;;;486.80;2380.80;;;;;;5052054;28;20029;-80
2023/06/16 11:02:34;;;;;;;3.38;2.30;;;486.80;2380.80;;;;;;5053004;28;20483;-80
2023/06/16 11:05:11;;;;;;;3.55;2.35;;;486.80;2380.80;;;;;;5056243;28;20095;-79
2023/06/16 11:07:39;;;;;;;10.90;3.88;;;486.80;2380.80;;;;;;5056425;28;20110;-82
2023/06/16 11:10:09;;;;;;;3.40;2.40;;;486.80;2380.80;;;;;;5056236;28;20441;-79
2023/06/16 11:12:40;;;;;;;4.00;2.33;;;486.70;2380.80;;;;;;5056284;28;20029;-82
2023/06/16 11:15:07;;;;;;;3.50;2.30;;;486.80;2380.80;;;;;;5056082;28;20345;-81
2023/06/16 11:17:33;;;;;;;3.78;2.75;;;486.80;2380.80;;;;;;5055569;28;20025;-81
2023/06/16 11:20:01;;;;;;;4.78;2.50;;;486.80;2380.80;;;;;;5055996;28;20063;-81
2023/06/16 11:22:35;;;;;;;4.03;2.85;;;486.80;2380.80;;;;;;5055793;28;20078;-81
2023/06/16 11:25:01;;;;;;;3.95;2.97;;;486.90;2380.80;;;;;;5055743;28;20078;-81
2023/06/16 11:27:30;;;;;;;3.60;2.80;;;486.80;2380.80;;;;;;5056107;28;20090;-81
2023/06/16 11:29:57;;;;;;;4.10;2.90;;;486.80;2380.80;;;;;;5056059;28;20389;-81
2023/06/16 11:32:28;;;;;;;4.10;3.50;;;486.70;2380.80;;;;;;5055596;28;20036;-80
2023/06/16 11:34:57;;;;;;;4.20;3.30;;;486.70;2380.80;;;;;;5055829;28;20729;-83
2023/06/16 11:37:50;;;;;;;4.50;3.83;;;486.70;2380.80;;;;;;5055935;28;20057;-83
2023/06/16 11:40:26;;;;;;;7.32;5.60;;;486.60;2380.80;;;;;;5072077;28;20020;-84
2023/06/16 11:42:56;;;;;;;5.15;4.65;;;486.60;2380.80;;;;;;5055610;28;20032;-81
2023/06/16 11:45:26;;;;;;;8.73;3.95;;;486.60;2380.80;;;;;;5055509;28;20055;-80
2023/06/16 11:47:55;;;;;;;5.60;4.72;;;486.60;2380.80;;;;;;5054347;28;20171;-82
2023/06/16 11:50:22;;;;;;;4.90;4.25;;;486.50;2380.80;;;;;;5037321;28;20036;-80
2023/06/16 11:52:49;;;;;;;5.05;4.55;;;486.60;2380.80;;;;;;5054409;28;20037;-81
2023/06/16 11:55:15;;;;;;;5.03;4.32;;;486.60;2380.80;;;;;;5053992;28;20111;-82
2023/06/16 11:57:41;;;;;;;6.18;4.57;;;486.50;2380.80;;;;;;5054427;28;20071;-81
2023/06/16 12:00:08;;;;;;;6.18;4.70;;;486.50;2380.80;;;;;;5036752;28;20029;-80
2023/06/16 12:02:36;;;;;;;4.75;4.25;;;486.50;2380.80;;;;;;5053755;28;20090;-82
2023/06/16 12:05:10;;;;;;;5.50;4.50;;;486.60;2380.80;;;;;;5053900;28;20043;-82
2023/06/16 12:07:39;;;;;;;5.30;4.80;;;486.70;2380.80;;;;;;5037350;28;20128;-81
2023/06/16 12:10:06;;;;;;;5.18;4.57;;;486.50;2380.80;;;;;;5054070;28;20358;-80
2023/06/16 12:12:33;;;;;;;5.20;4.45;;;486.50;2380.80;;;;;;5053888;28;20083;-83
2023/06/16 12:15:01;;;;;;;5.03;4.18;;;486.50;2380.80;;;;;;5037163;28;20039;-81
2023/06/16 12:17:27;;;;;;;5.32;4.47;;;486.50;2380.80;;;;;;5036825;28;20523;-81
2023/06/16 12:19:54;;;;;;;4.97;4.35;;;486.60;2380.80;;;;;;5055686;28;20120;-80
2023/06/16 12:22:21;;;;;;;5.38;4.68;;;486.50;2380.80;;;;;;5055898;28;20025;-81
2023/06/16 12:24:48;;;;;;;5.32;4.38;;;487.00;2380.80;;;;;;5055415;28;20108;-81